sensor_id;sensor_type;location;lat;lon;timestamp;temperature;humidity
1880;DHT22;49285;49.002;8.390;2023-05-07T00:00:23;19.40;96.20
1880;DHT22;49285;49.002;8.390;2023-05-07T00:02:49;19.40;96.40
1880;DHT22;49285;49.002;8.390;2023-05-07T00:05:15;19.30;96.50
1880;DHT22;49285;49.002;8.390;2023-05-07T00:07:41;19.30;96.80
1880;DHT22;49285;49.002;8.390;2023-05-07T00:10:07;19.30;97.20
1880;DHT22;49285;49.002;8.390;2023-05-07T00:12:33;19.20;97.40
1880;DHT22;49285;49.002;8.390;2023-05-07T00:15:00;19.20;97.70
1880;DHT22;49285;49.002;8.390;2023-05-07T00:17:25;19.20;97.90
1880;DHT22;49285;49.002;8.390;2023-05-07T00:19:51;19.20;98.20
1880;DHT22;49285;49.002;8.390;2023-05-07T00:22:16;19.10;98.50
1880;DHT22;49285;49.002;8.390;2023-05-07T00:24:42;19.10;98.70
1880;DHT22;49285;49.002;8.390;2023-05-07T00:27:08;19.00;99.10
1880;DHT22;49285;49.002;8.390;2023-05-07T00:29:33;19.00;99.40
1880;DHT22;49285;49.002;8.390;2023-05-07T00:31:59;19.00;99.60
1880;DHT22;49285;49.002;8.390;2023-05-07T00:34:25;19.00;99.80
1880;DHT22;49285;49.002;8.390;2023-05-07T00:36:50;18.90;99.90
1880;DHT22;49285;49.002;8.390;2023-05-07T00:39:16;18.90;99.90
1880;DHT22;49285;49.002;8.390;2023-05-07T00:41:41;18.90;99.90
1880;DHT22;49285;49.002;8.390;2023-05-07T00:44:07;18.90;99.90
1880;DHT22;49285;49.002;8.390;2023-05-07T00:46:32;18.90;99.90
1880;DHT22;49285;49.002;8.390;2023-05-07T00:48:59;18.80;99.90
1880;DHT22;49285;49.002;8.390;2023-05-07T00:51:25;18.80;99.90
1880;DHT22;49285;49.002;8.390;2023-05-07T00:53:53;18.80;99.90
1880;DHT22;49285;49.002;8.390;2023-05-07T00:56:19;18.80;99.90
1880;DHT22;49285;49.002;8.390;2023-05-07T00:58:45;18.70;99.90
1880;DHT22;49285;49.002;8.390;2023-05-07T01:01:11;18.70;99.90
1880;DHT22;49285;49.002;8.390;2023-05-07T01:03:37;18.70;99.90
1880;DHT22;49285;49.002;8.390;2023-05-07T01:06:03;18.70;99.90
1880;DHT22;49285;49.002;8.390;2023-05-07T01:08:30;18.60;99.90
1880;DHT22;49285;49.002;8.390;2023-05-07T01:10:57;18.60;99.90
1880;DHT22;49285;49.002;8.390;2023-05-07T01:13:23;18.60;99.90
1880;DHT22;49285;49.002;8.390;2023-05-07T01:15:50;18.60;99.90
1880;DHT22;49285;49.002;8.390;2023-05-07T01:18:15;18.50;99.90
1880;DHT22;49285;49.002;8.390;2023-05-07T01:20:42;18.50;99.90
1880;DHT22;49285;49.002;8.390;2023-05-07T01:23:07;18.50;99.90
1880;DHT22;49285;49.002;8.390;2023-05-07T01:25:34;18.40;99.90
1880;DHT22;49285;49.002;8.390;2023-05-07T01:28:00;18.40;99.90
1880;DHT22;49285;49.002;8.390;2023-05-07T01:30:27;18.40;99.90
1880;DHT22;49285;49.002;8.390;2023-05-07T01:33:09;18.40;99.90
1880;DHT22;49285;49.002;8.390;2023-05-07T01:35:39;18.30;99.90
1880;DHT22;49285;49.002;8.390;2023-05-07T01:38:05;18.30;99.90
1880;DHT22;49285;49.002;8.390;2023-05-07T01:40:32;18.20;99.90
1880;DHT22;49285;49.002;8.390;2023-05-07T01:42:58;18.20;99.90
1880;DHT22;49285;49.002;8.390;2023-05-07T01:45:24;18.20;99.90
1880;DHT22;49285;49.002;8.390;2023-05-07T01:47:51;18.20;99.90
1880;DHT22;49285;49.002;8.390;2023-05-07T01:50:19;18.10;99.90
1880;DHT22;49285;49.002;8.390;2023-05-07T01:52:45;18.10;99.90
1880;DHT22;49285;49.002;8.390;2023-05-07T01:55:12;18.10;99.90
1880;DHT22;49285;49.002;8.390;2023-05-07T01:57:38;18.10;99.90
1880;DHT22;49285;49.002;8.390;2023-05-07T02:00:03;18.10;99.90
1880;DHT22;49285;49.002;8.390;2023-05-07T02:02:30;18.10;99.90
1880;DHT22;49285;49.002;8.390;2023-05-07T02:04:56;18.00;99.90
1880;DHT22;49285;49.002;8.390;2023-05-07T02:07:22;18.00;99.90
1880;DHT22;49285;49.002;8.390;2023-05-07T02:09:47;18.00;99.90
1880;DHT22;49285;49.002;8.390;2023-05-07T02:12:13;18.00;99.90
1880;DHT22;49285;49.002;8.390;2023-05-07T02:14:38;17.90;99.90
1880;DHT22;49285;49.002;8.390;2023-05-07T02:17:04;17.90;99.90
1880;DHT22;49285;49.002;8.390;2023-05-07T02:19:30;17.80;99.90
1880;DHT22;49285;49.002;8.390;2023-05-07T02:21:55;17.80;99.90
1880;DHT22;49285;49.002;8.390;2023-05-07T02:24:21;17.80;99.90
1880;DHT22;49285;49.002;8.390;2023-05-07T02:26:46;17.70;99.90
1880;DHT22;49285;49.002;8.390;2023-05-07T02:29:12;17.80;99.90
1880;DHT22;49285;49.002;8.390;2023-05-07T02:31:37;17.70;99.90
1880;DHT22;49285;49.002;8.390;2023-05-07T02:34:03;17.70;99.90
1880;DHT22;49285;49.002;8.390;2023-05-07T02:36:29;17.70;99.90
1880;DHT22;49285;49.002;8.390;2023-05-07T02:38:54;17.70;99.90
1880;DHT22;49285;49.002;8.390;2023-05-07T02:41:20;17.70;99.90
1880;DHT22;49285;49.002;8.390;2023-05-07T02:43:46;17.60;99.90
1880;DHT22;49285;49.002;8.390;2023-05-07T02:46:11;17.60;99.90
1880;DHT22;49285;49.002;8.390;2023-05-07T02:48:37;17.60;99.90
1880;DHT22;49285;49.002;8.390;2023-05-07T02:51:03;17.60;99.90
1880;DHT22;49285;49.002;8.390;2023-05-07T02:53:29;17.60;99.90
1880;DHT22;49285;49.002;8.390;2023-05-07T02:55:59;17.60;99.90
1880;DHT22;49285;49.002;8.390;2023-05-07T02:58:25;17.60;99.90
1880;DHT22;49285;49.002;8.390;2023-05-07T03:00:51;17.60;99.90
1880;DHT22;49285;49.002;8.390;2023-05-07T03:03:17;17.50;99.90
1880;DHT22;49285;49.002;8.390;2023-05-07T03:05:43;17.50;99.90
1880;DHT22;49285;49.002;8.390;2023-05-07T03:08:10;17.50;99.90
1880;DHT22;49285;49.002;8.390;2023-05-07T03:10:36;17.50;99.90
1880;DHT22;49285;49.002;8.390;2023-05-07T03:13:02;17.50;99.90
1880;DHT22;49285;49.002;8.390;2023-05-07T03:15:28;17.50;99.90
1880;DHT22;49285;49.002;8.390;2023-05-07T03:17:53;17.50;99.90
1880;DHT22;49285;49.002;8.390;2023-05-07T03:20:19;17.50;99.90
1880;DHT22;49285;49.002;8.390;2023-05-07T03:22:44;17.50;99.90
1880;DHT22;49285;49.002;8.390;2023-05-07T03:25:10;17.40;99.90
1880;DHT22;49285;49.002;8.390;2023-05-07T03:27:36;17.40;99.90
1880;DHT22;49285;49.002;8.390;2023-05-07T03:30:02;17.40;99.90
1880;DHT22;49285;49.002;8.390;2023-05-07T03:32:27;17.30;99.90
1880;DHT22;49285;49.002;8.390;2023-05-07T03:34:53;17.30;99.90
1880;DHT22;49285;49.002;8.390;2023-05-07T03:37:19;17.30;99.90
1880;DHT22;49285;49.002;8.390;2023-05-07T03:39:44;17.30;99.90
1880;DHT22;49285;49.002;8.390;2023-05-07T03:42:10;17.20;99.90
1880;DHT22;49285;49.002;8.390;2023-05-07T03:44:37;17.20;99.90
1880;DHT22;49285;49.002;8.390;2023-05-07T03:47:03;17.20;99.90
1880;DHT22;49285;49.002;8.390;2023-05-07T03:49:29;17.20;99.90
1880;DHT22;49285;49.002;8.390;2023-05-07T03:51:54;17.10;99.90
1880;DHT22;49285;49.002;8.390;2023-05-07T03:54:20;17.10;99.90
1880;DHT22;49285;49.002;8.390;2023-05-07T03:56:46;17.10;99.90
1880;DHT22;49285;49.002;8.390;2023-05-07T03:59:12;17.00;99.90
1880;DHT22;49285;49.002;8.390;2023-05-07T04:01:38;17.00;99.90
1880;DHT22;49285;49.002;8.390;2023-05-07T04:04:04;17.00;99.90
1880;DHT22;49285;49.002;8.390;2023-05-07T04:06:30;17.00;99.90
1880;DHT22;49285;49.002;8.390;2023-05-07T04:08:56;17.00;99.90
1880;DHT22;49285;49.002;8.390;2023-05-07T04:11:24;17.00;99.90
1880;DHT22;49285;49.002;8.390;2023-05-07T04:13:50;16.90;99.90
1880;DHT22;49285;49.002;8.390;2023-05-07T04:16:15;16.90;99.90
1880;DHT22;49285;49.002;8.390;2023-05-07T04:18:41;16.90;99.90
1880;DHT22;49285;49.002;8.390;2023-05-07T04:21:18;16.90;99.90
1880;DHT22;49285;49.002;8.390;2023-05-07T04:23:44;16.90;99.90
1880;DHT22;49285;49.002;8.390;2023-05-07T04:26:09;16.90;99.90
1880;DHT22;49285;49.002;8.390;2023-05-07T04:28:35;16.90;99.90
1880;DHT22;49285;49.002;8.390;2023-05-07T04:31:01;16.90;99.90
1880;DHT22;49285;49.002;8.390;2023-05-07T04:33:27;16.90;99.90
1880;DHT22;49285;49.002;8.390;2023-05-07T04:35:52;16.90;99.90
1880;DHT22;49285;49.002;8.390;2023-05-07T04:38:18;16.90;99.90
1880;DHT22;49285;49.002;8.390;2023-05-07T04:40:44;16.90;99.90
1880;DHT22;49285;49.002;8.390;2023-05-07T04:43:10;16.80;99.90
1880;DHT22;49285;49.002;8.390;2023-05-07T04:45:36;16.80;99.90
1880;DHT22;49285;49.002;8.390;2023-05-07T04:48:01;16.80;99.90
1880;DHT22;49285;49.002;8.390;2023-05-07T04:50:27;16.80;99.90
1880;DHT22;49285;49.002;8.390;2023-05-07T04:52:53;16.80;99.90
1880;DHT22;49285;49.002;8.390;2023-05-07T04:55:18;16.80;99.90
1880;DHT22;49285;49.002;8.390;2023-05-07T04:57:44;16.80;99.90
1880;DHT22;49285;49.002;8.390;2023-05-07T05:00:11;16.80;99.90
1880;DHT22;49285;49.002;8.390;2023-05-07T05:02:39;16.80;99.90
1880;DHT22;49285;49.002;8.390;2023-05-07T05:05:05;16.80;99.90
1880;DHT22;49285;49.002;8.390;2023-05-07T05:07:31;16.90;99.90
1880;DHT22;49285;49.002;8.390;2023-05-07T05:09:57;16.90;99.90
1880;DHT22;49285;49.002;8.390;2023-05-07T05:12:23;16.90;99.90
1880;DHT22;49285;49.002;8.390;2023-05-07T05:14:48;16.90;99.90
1880;DHT22;49285;49.002;8.390;2023-05-07T05:17:14;16.90;99.90
1880;DHT22;49285;49.002;8.390;2023-05-07T05:19:40;17.00;99.90
1880;DHT22;49285;49.002;8.390;2023-05-07T05:22:05;17.00;99.90
1880;DHT22;49285;49.002;8.390;2023-05-07T05:24:31;17.00;99.90
1880;DHT22;49285;49.002;8.390;2023-05-07T05:26:57;17.10;99.90
1880;DHT22;49285;49.002;8.390;2023-05-07T05:29:22;17.20;99.90
1880;DHT22;49285;49.002;8.390;2023-05-07T05:31:48;17.20;99.90
1880;DHT22;49285;49.002;8.390;2023-05-07T05:34:14;17.30;99.90
1880;DHT22;49285;49.002;8.390;2023-05-07T05:36:39;17.40;99.90
1880;DHT22;49285;49.002;8.390;2023-05-07T05:39:05;17.40;99.90
1880;DHT22;49285;49.002;8.390;2023-05-07T05:41:31;17.50;99.90
1880;DHT22;49285;49.002;8.390;2023-05-07T05:43:56;17.60;99.90
1880;DHT22;49285;49.002;8.390;2023-05-07T05:46:22;17.60;99.90
1880;DHT22;49285;49.002;8.390;2023-05-07T05:48:48;17.70;99.90
1880;DHT22;49285;49.002;8.390;2023-05-07T05:51:13;17.70;99.90
1880;DHT22;49285;49.002;8.390;2023-05-07T05:53:39;17.80;99.90
1880;DHT22;49285;49.002;8.390;2023-05-07T05:56:04;17.90;99.90
1880;DHT22;49285;49.002;8.390;2023-05-07T05:58:30;17.90;99.90
1880;DHT22;49285;49.002;8.390;2023-05-07T06:00:56;18.00;99.90
1880;DHT22;49285;49.002;8.390;2023-05-07T06:03:22;18.10;99.90
1880;DHT22;49285;49.002;8.390;2023-05-07T06:05:47;18.20;99.90
1880;DHT22;49285;49.002;8.390;2023-05-07T06:08:13;18.20;99.90
1880;DHT22;49285;49.002;8.390;2023-05-07T06:10:38;18.30;99.90
1880;DHT22;49285;49.002;8.390;2023-05-07T06:13:04;18.30;99.90
1880;DHT22;49285;49.002;8.390;2023-05-07T06:15:30;18.40;99.90
1880;DHT22;49285;49.002;8.390;2023-05-07T06:17:56;18.40;99.90
1880;DHT22;49285;49.002;8.390;2023-05-07T06:20:22;18.50;99.90
1880;DHT22;49285;49.002;8.390;2023-05-07T06:22:48;18.60;99.90
1880;DHT22;49285;49.002;8.390;2023-05-07T06:25:14;18.70;99.90
1880;DHT22;49285;49.002;8.390;2023-05-07T06:27:40;18.80;99.90
1880;DHT22;49285;49.002;8.390;2023-05-07T06:30:06;18.80;99.90
1880;DHT22;49285;49.002;8.390;2023-05-07T06:32:32;18.90;99.90
1880;DHT22;49285;49.002;8.390;2023-05-07T06:34:57;19.00;99.90
1880;DHT22;49285;49.002;8.390;2023-05-07T06:37:23;19.10;99.90
1880;DHT22;49285;49.002;8.390;2023-05-07T06:39:48;19.10;99.90
1880;DHT22;49285;49.002;8.390;2023-05-07T06:42:14;19.20;99.90
1880;DHT22;49285;49.002;8.390;2023-05-07T06:44:39;19.20;99.90
1880;DHT22;49285;49.002;8.390;2023-05-07T06:47:05;19.20;99.90
1880;DHT22;49285;49.002;8.390;2023-05-07T06:49:31;19.20;99.90
1880;DHT22;49285;49.002;8.390;2023-05-07T06:51:56;19.30;99.90
1880;DHT22;49285;49.002;8.390;2023-05-07T06:54:22;19.30;99.90
1880;DHT22;49285;49.002;8.390;2023-05-07T06:56:48;19.40;99.90
1880;DHT22;49285;49.002;8.390;2023-05-07T06:59:14;19.40;99.90
1880;DHT22;49285;49.002;8.390;2023-05-07T07:01:40;19.50;99.90
1880;DHT22;49285;49.002;8.390;2023-05-07T07:04:05;19.60;99.90
1880;DHT22;49285;49.002;8.390;2023-05-07T07:06:31;19.60;99.90
1880;DHT22;49285;49.002;8.390;2023-05-07T07:08:58;19.70;99.90
1880;DHT22;49285;49.002;8.390;2023-05-07T07:11:23;19.70;99.90
1880;DHT22;49285;49.002;8.390;2023-05-07T07:13:49;19.80;99.90
1880;DHT22;49285;49.002;8.390;2023-05-07T07:16:16;19.80;99.90
1880;DHT22;49285;49.002;8.390;2023-05-07T07:18:41;19.90;99.90
1880;DHT22;49285;49.002;8.390;2023-05-07T07:21:07;19.90;99.90
1880;DHT22;49285;49.002;8.390;2023-05-07T07:23:32;19.90;99.90
1880;DHT22;49285;49.002;8.390;2023-05-07T07:25:58;19.90;99.90
1880;DHT22;49285;49.002;8.390;2023-05-07T07:28:24;19.90;99.90
1880;DHT22;49285;49.002;8.390;2023-05-07T07:30:49;19.80;99.90
1880;DHT22;49285;49.002;8.390;2023-05-07T07:33:15;19.90;99.90
1880;DHT22;49285;49.002;8.390;2023-05-07T07:35:41;19.90;99.90
1880;DHT22;49285;49.002;8.390;2023-05-07T07:38:06;19.90;99.90
1880;DHT22;49285;49.002;8.390;2023-05-07T07:40:34;20.00;99.90
1880;DHT22;49285;49.002;8.390;2023-05-07T07:43:00;20.00;99.90
1880;DHT22;49285;49.002;8.390;2023-05-07T07:45:26;20.00;99.90
1880;DHT22;49285;49.002;8.390;2023-05-07T07:47:52;19.90;99.90
1880;DHT22;49285;49.002;8.390;2023-05-07T07:50:18;19.90;99.90
1880;DHT22;49285;49.002;8.390;2023-05-07T07:52:44;19.90;99.90
1880;DHT22;49285;49.002;8.390;2023-05-07T07:55:09;20.00;99.90
1880;DHT22;49285;49.002;8.390;2023-05-07T07:57:35;19.90;99.90
1880;DHT22;49285;49.002;8.390;2023-05-07T08:00:01;19.80;99.90
1880;DHT22;49285;49.002;8.390;2023-05-07T08:02:27;19.80;99.90
1880;DHT22;49285;49.002;8.390;2023-05-07T08:04:53;19.70;99.90
1880;DHT22;49285;49.002;8.390;2023-05-07T08:07:18;19.60;99.90
1880;DHT22;49285;49.002;8.390;2023-05-07T08:09:46;19.60;99.90
1880;DHT22;49285;49.002;8.390;2023-05-07T08:12:12;19.70;99.90
1880;DHT22;49285;49.002;8.390;2023-05-07T08:14:37;19.60;99.90
1880;DHT22;49285;49.002;8.390;2023-05-07T08:17:03;19.60;99.90
1880;DHT22;49285;49.002;8.390;2023-05-07T08:19:29;19.70;99.90
1880;DHT22;49285;49.002;8.390;2023-05-07T08:21:54;19.80;99.90
1880;DHT22;49285;49.002;8.390;2023-05-07T08:24:20;19.90;99.90
1880;DHT22;49285;49.002;8.390;2023-05-07T08:26:46;19.80;99.90
1880;DHT22;49285;49.002;8.390;2023-05-07T08:29:11;19.80;99.90
1880;DHT22;49285;49.002;8.390;2023-05-07T08:31:37;19.80;99.90
1880;DHT22;49285;49.002;8.390;2023-05-07T08:34:05;19.90;99.90
1880;DHT22;49285;49.002;8.390;2023-05-07T08:36:31;19.80;99.90
1880;DHT22;49285;49.002;8.390;2023-05-07T08:38:57;19.90;99.90
1880;DHT22;49285;49.002;8.390;2023-05-07T08:41:23;20.00;99.90
1880;DHT22;49285;49.002;8.390;2023-05-07T08:43:50;19.90;99.90
1880;DHT22;49285;49.002;8.390;2023-05-07T08:46:20;20.10;99.90
1880;DHT22;49285;49.002;8.390;2023-05-07T08:48:48;20.00;99.90
1880;DHT22;49285;49.002;8.390;2023-05-07T08:51:19;20.00;99.90
1880;DHT22;49285;49.002;8.390;2023-05-07T08:53:46;20.10;99.90
1880;DHT22;49285;49.002;8.390;2023-05-07T08:56:14;20.20;99.90
1880;DHT22;49285;49.002;8.390;2023-05-07T08:58:45;20.30;99.90
1880;DHT22;49285;49.002;8.390;2023-05-07T09:01:15;20.20;99.90
1880;DHT22;49285;49.002;8.390;2023-05-07T09:03:46;20.30;99.90
1880;DHT22;49285;49.002;8.390;2023-05-07T09:06:12;20.30;99.90
1880;DHT22;49285;49.002;8.390;2023-05-07T09:08:38;20.40;99.90
1880;DHT22;49285;49.002;8.390;2023-05-07T09:11:03;20.40;99.90
1880;DHT22;49285;49.002;8.390;2023-05-07T09:13:29;20.40;99.90
1880;DHT22;49285;49.002;8.390;2023-05-07T09:15:55;20.50;99.90
1880;DHT22;49285;49.002;8.390;2023-05-07T09:18:20;20.60;99.90
1880;DHT22;49285;49.002;8.390;2023-05-07T09:20:46;20.70;99.90
1880;DHT22;49285;49.002;8.390;2023-05-07T09:23:12;20.70;99.90
1880;DHT22;49285;49.002;8.390;2023-05-07T09:25:37;20.70;99.90
1880;DHT22;49285;49.002;8.390;2023-05-07T09:28:04;20.80;99.90
1880;DHT22;49285;49.002;8.390;2023-05-07T09:30:33;20.80;99.90
1880;DHT22;49285;49.002;8.390;2023-05-07T09:33:00;20.80;99.90
1880;DHT22;49285;49.002;8.390;2023-05-07T09:35:27;20.90;99.90
1880;DHT22;49285;49.002;8.390;2023-05-07T09:37:53;21.00;99.90
1880;DHT22;49285;49.002;8.390;2023-05-07T09:40:28;21.00;99.90
1880;DHT22;49285;49.002;8.390;2023-05-07T09:42:55;21.00;99.90
1880;DHT22;49285;49.002;8.390;2023-05-07T09:45:27;21.10;99.90
1880;DHT22;49285;49.002;8.390;2023-05-07T09:47:57;21.20;99.90
1880;DHT22;49285;49.002;8.390;2023-05-07T09:50:35;21.10;99.90
1880;DHT22;49285;49.002;8.390;2023-05-07T09:53:01;21.30;99.90
1880;DHT22;49285;49.002;8.390;2023-05-07T09:55:28;21.40;99.90
1880;DHT22;49285;49.002;8.390;2023-05-07T09:57:54;21.40;99.90
1880;DHT22;49285;49.002;8.390;2023-05-07T10:00:22;21.50;99.90
1880;DHT22;49285;49.002;8.390;2023-05-07T10:02:49;21.70;99.90
1880;DHT22;49285;49.002;8.390;2023-05-07T10:05:18;21.80;99.90
1880;DHT22;49285;49.002;8.390;2023-05-07T10:07:44;21.80;99.90
1880;DHT22;49285;49.002;8.390;2023-05-07T10:10:10;21.90;99.90
1880;DHT22;49285;49.002;8.390;2023-05-07T10:12:36;22.00;99.90
1880;DHT22;49285;49.002;8.390;2023-05-07T10:15:09;22.10;99.90
1880;DHT22;49285;49.002;8.390;2023-05-07T10:17:40;22.10;99.90
1880;DHT22;49285;49.002;8.390;2023-05-07T10:20:06;22.10;99.90
1880;DHT22;49285;49.002;8.390;2023-05-07T10:22:47;22.20;99.90
1880;DHT22;49285;49.002;8.390;2023-05-07T10:25:22;22.40;99.90
1880;DHT22;49285;49.002;8.390;2023-05-07T10:27:50;22.50;99.90
1880;DHT22;49285;49.002;8.390;2023-05-07T10:30:38;22.50;99.90
1880;DHT22;49285;49.002;8.390;2023-05-07T10:33:07;22.60;99.90
1880;DHT22;49285;49.002;8.390;2023-05-07T10:35:44;22.70;99.90
1880;DHT22;49285;49.002;8.390;2023-05-07T10:38:10;22.70;99.90
1880;DHT22;49285;49.002;8.390;2023-05-07T10:40:36;22.70;99.90
1880;DHT22;49285;49.002;8.390;2023-05-07T10:43:04;22.80;99.90
1880;DHT22;49285;49.002;8.390;2023-05-07T10:45:33;22.90;99.90
1880;DHT22;49285;49.002;8.390;2023-05-07T10:50:35;23.10;99.90
1880;DHT22;49285;49.002;8.390;2023-05-07T10:58:25;23.60;99.90
1880;DHT22;49285;49.002;8.390;2023-05-07T11:01:02;23.70;99.90
1880;DHT22;49285;49.002;8.390;2023-05-07T11:03:28;24.00;99.90
1880;DHT22;49285;49.002;8.390;2023-05-07T11:08:56;24.60;99.90
1880;DHT22;49285;49.002;8.390;2023-05-07T11:11:47;24.90;99.90
1880;DHT22;49285;49.002;8.390;2023-05-07T11:17:11;25.50;99.90
1880;DHT22;49285;49.002;8.390;2023-05-07T11:19:54;25.70;99.90
1880;DHT22;49285;49.002;8.390;2023-05-07T11:25:02;25.90;99.90
1880;DHT22;49285;49.002;8.390;2023-05-07T11:27:29;26.10;99.80
1880;DHT22;49285;49.002;8.390;2023-05-07T11:29:55;26.20;98.60
1880;DHT22;49285;49.002;8.390;2023-05-07T11:32:24;26.20;98.30
1880;DHT22;49285;49.002;8.390;2023-05-07T11:34:54;26.30;97.40
1880;DHT22;49285;49.002;8.390;2023-05-07T11:37:21;26.20;96.80
1880;DHT22;49285;49.002;8.390;2023-05-07T11:39:47;26.30;97.10
1880;DHT22;49285;49.002;8.390;2023-05-07T11:42:33;26.50;96.50
1880;DHT22;49285;49.002;8.390;2023-05-07T11:45:00;26.70;96.50
1880;DHT22;49285;49.002;8.390;2023-05-07T11:47:26;27.00;96.10
1880;DHT22;49285;49.002;8.390;2023-05-07T11:49:55;27.30;95.80
1880;DHT22;49285;49.002;8.390;2023-05-07T11:52:22;27.70;95.00
1880;DHT22;49285;49.002;8.390;2023-05-07T11:54:52;28.20;94.50
1880;DHT22;49285;49.002;8.390;2023-05-07T11:57:18;28.50;93.50
1880;DHT22;49285;49.002;8.390;2023-05-07T11:59:44;28.90;92.60
1880;DHT22;49285;49.002;8.390;2023-05-07T12:02:10;29.70;92.00
1880;DHT22;49285;49.002;8.390;2023-05-07T12:04:37;30.10;90.50
1880;DHT22;49285;49.002;8.390;2023-05-07T12:07:03;30.30;88.60
1880;DHT22;49285;49.002;8.390;2023-05-07T12:09:28;30.40;85.00
1880;DHT22;49285;49.002;8.390;2023-05-07T12:11:55;30.40;80.70
1880;DHT22;49285;49.002;8.390;2023-05-07T12:14:21;30.20;82.10
1880;DHT22;49285;49.002;8.390;2023-05-07T12:16:47;30.30;82.30
1880;DHT22;49285;49.002;8.390;2023-05-07T12:19:13;30.50;78.10
1880;DHT22;49285;49.002;8.390;2023-05-07T12:21:39;30.90;77.00
1880;DHT22;49285;49.002;8.390;2023-05-07T12:24:05;31.90;76.80
1880;DHT22;49285;49.002;8.390;2023-05-07T12:26:31;33.00;73.80
1880;DHT22;49285;49.002;8.390;2023-05-07T12:28:59;33.20;69.60
1880;DHT22;49285;49.002;8.390;2023-05-07T12:31:28;33.30;67.50
1880;DHT22;49285;49.002;8.390;2023-05-07T12:33:53;33.30;66.70
1880;DHT22;49285;49.002;8.390;2023-05-07T12:36:19;32.90;64.90
1880;DHT22;49285;49.002;8.390;2023-05-07T12:38:49;32.90;64.60
1880;DHT22;49285;49.002;8.390;2023-05-07T12:41:15;33.30;64.10
1880;DHT22;49285;49.002;8.390;2023-05-07T12:43:44;32.90;62.50
1880;DHT22;49285;49.002;8.390;2023-05-07T12:46:11;32.40;63.30
1880;DHT22;49285;49.002;8.390;2023-05-07T12:48:43;31.60;63.80
1880;DHT22;49285;49.002;8.390;2023-05-07T12:51:10;31.20;65.90
1880;DHT22;49285;49.002;8.390;2023-05-07T12:53:40;30.90;66.80
1880;DHT22;49285;49.002;8.390;2023-05-07T12:56:07;30.40;66.90
1880;DHT22;49285;49.002;8.390;2023-05-07T12:58:34;29.80;68.20
1880;DHT22;49285;49.002;8.390;2023-05-07T13:01:03;29.60;68.90
1880;DHT22;49285;49.002;8.390;2023-05-07T13:03:34;29.40;68.40
1880;DHT22;49285;49.002;8.390;2023-05-07T13:06:05;29.30;69.70
1880;DHT22;49285;49.002;8.390;2023-05-07T13:08:36;29.40;70.80
1880;DHT22;49285;49.002;8.390;2023-05-07T13:11:03;29.40;71.30
1880;DHT22;49285;49.002;8.390;2023-05-07T13:13:30;30.00;70.80
1880;DHT22;49285;49.002;8.390;2023-05-07T13:15:56;30.60;69.50
1880;DHT22;49285;49.002;8.390;2023-05-07T13:18:22;30.80;65.80
1880;DHT22;49285;49.002;8.390;2023-05-07T13:20:47;30.90;65.50
1880;DHT22;49285;49.002;8.390;2023-05-07T13:23:13;30.80;65.60
1880;DHT22;49285;49.002;8.390;2023-05-07T13:25:38;30.70;66.30
1880;DHT22;49285;49.002;8.390;2023-05-07T13:28:04;30.70;66.60
1880;DHT22;49285;49.002;8.390;2023-05-07T13:30:30;31.50;65.20
1880;DHT22;49285;49.002;8.390;2023-05-07T13:32:56;32.20;63.20
1880;DHT22;49285;49.002;8.390;2023-05-07T13:35:22;33.50;60.70
1880;DHT22;49285;49.002;8.390;2023-05-07T13:37:47;34.10;58.30
1880;DHT22;49285;49.002;8.390;2023-05-07T13:40:14;34.40;57.10
1880;DHT22;49285;49.002;8.390;2023-05-07T13:42:40;34.80;55.80
1880;DHT22;49285;49.002;8.390;2023-05-07T13:45:07;34.40;55.70
1880;DHT22;49285;49.002;8.390;2023-05-07T13:47:32;33.90;54.90
1880;DHT22;49285;49.002;8.390;2023-05-07T13:49:58;33.40;55.00
1880;DHT22;49285;49.002;8.390;2023-05-07T13:52:24;33.20;55.40
1880;DHT22;49285;49.002;8.390;2023-05-07T13:54:49;32.70;55.50
1880;DHT22;49285;49.002;8.390;2023-05-07T13:57:17;32.10;55.90
1880;DHT22;49285;49.002;8.390;2023-05-07T13:59:42;31.10;56.50
1880;DHT22;49285;49.002;8.390;2023-05-07T14:02:08;30.40;58.10
1880;DHT22;49285;49.002;8.390;2023-05-07T14:04:34;29.90;59.20
1880;DHT22;49285;49.002;8.390;2023-05-07T14:07:00;29.50;60.10
1880;DHT22;49285;49.002;8.390;2023-05-07T14:09:26;28.70;62.30
1880;DHT22;49285;49.002;8.390;2023-05-07T14:11:51;28.20;64.30
1880;DHT22;49285;49.002;8.390;2023-05-07T14:14:18;27.80;67.20
1880;DHT22;49285;49.002;8.390;2023-05-07T14:16:44;27.50;71.00
1880;DHT22;49285;49.002;8.390;2023-05-07T14:19:10;27.10;73.60
1880;DHT22;49285;49.002;8.390;2023-05-07T14:21:36;26.50;75.10
1880;DHT22;49285;49.002;8.390;2023-05-07T14:24:02;26.20;77.60
1880;DHT22;49285;49.002;8.390;2023-05-07T14:26:27;26.20;77.30
1880;DHT22;49285;49.002;8.390;2023-05-07T14:28:53;26.30;77.80
1880;DHT22;49285;49.002;8.390;2023-05-07T14:31:20;26.10;75.10
1880;DHT22;49285;49.002;8.390;2023-05-07T14:33:46;26.30;74.00
1880;DHT22;49285;49.002;8.390;2023-05-07T14:36:12;26.50;74.50
1880;DHT22;49285;49.002;8.390;2023-05-07T14:38:37;26.80;73.60
1880;DHT22;49285;49.002;8.390;2023-05-07T14:41:03;27.40;72.40
1880;DHT22;49285;49.002;8.390;2023-05-07T14:43:29;27.80;69.20
1880;DHT22;49285;49.002;8.390;2023-05-07T14:45:54;28.30;66.20
1880;DHT22;49285;49.002;8.390;2023-05-07T14:48:20;28.80;63.80
1880;DHT22;49285;49.002;8.390;2023-05-07T14:50:47;29.20;62.10
1880;DHT22;49285;49.002;8.390;2023-05-07T14:53:13;29.50;59.80
1880;DHT22;49285;49.002;8.390;2023-05-07T14:55:39;29.40;58.60
1880;DHT22;49285;49.002;8.390;2023-05-07T14:58:05;29.20;59.20
1880;DHT22;49285;49.002;8.390;2023-05-07T15:00:30;29.00;60.00
1880;DHT22;49285;49.002;8.390;2023-05-07T15:03:06;28.90;60.20
1880;DHT22;49285;49.002;8.390;2023-05-07T15:05:33;28.70;62.10
1880;DHT22;49285;49.002;8.390;2023-05-07T15:07:58;28.90;62.80
1880;DHT22;49285;49.002;8.390;2023-05-07T15:10:24;28.90;62.20
1880;DHT22;49285;49.002;8.390;2023-05-07T15:12:50;28.90;62.30
1880;DHT22;49285;49.002;8.390;2023-05-07T15:15:15;28.90;62.00
1880;DHT22;49285;49.002;8.390;2023-05-07T15:17:41;28.60;63.00
1880;DHT22;49285;49.002;8.390;2023-05-07T15:20:07;28.40;64.00
1880;DHT22;49285;49.002;8.390;2023-05-07T15:22:33;28.00;65.10
1880;DHT22;49285;49.002;8.390;2023-05-07T15:24:59;27.60;66.50
1880;DHT22;49285;49.002;8.390;2023-05-07T15:27:25;27.30;67.70
1880;DHT22;49285;49.002;8.390;2023-05-07T15:29:51;27.00;68.50
1880;DHT22;49285;49.002;8.390;2023-05-07T15:32:17;26.60;69.70
1880;DHT22;49285;49.002;8.390;2023-05-07T15:34:42;26.30;70.50
1880;DHT22;49285;49.002;8.390;2023-05-07T15:37:08;26.20;71.60
1880;DHT22;49285;49.002;8.390;2023-05-07T15:39:33;25.90;72.00
1880;DHT22;49285;49.002;8.390;2023-05-07T15:41:59;25.70;73.30
1880;DHT22;49285;49.002;8.390;2023-05-07T15:44:24;25.60;74.10
1880;DHT22;49285;49.002;8.390;2023-05-07T15:46:55;25.40;74.90
1880;DHT22;49285;49.002;8.390;2023-05-07T15:49:21;25.40;75.20
1880;DHT22;49285;49.002;8.390;2023-05-07T15:51:47;25.30;76.20
1880;DHT22;49285;49.002;8.390;2023-05-07T15:54:13;25.20;80.40
1880;DHT22;49285;49.002;8.390;2023-05-07T15:56:38;25.20;82.50